Time;durP1;ratioP1;P1;durP2;ratioP2;P2;SDS_P1;SDS_P2;PMS_P1;PMS_P2;Temp;Humidity;BMP_temperature;BMP_pressure;BME280_temperature;BME280_humidity;BME280_pressure;Samples;Min_cycle;Max_cycle;Signal;HPM_P1;HPM_P2
2024/01/13 00:01:05;;;;;;;15.05;14.35;;;;;;;;;;5036740;28;20033;-54
2024/01/13 00:03:30;;;;;;;15.20;14.50;;;;;;;;;;5033962;28;20022;-55
2024/01/13 00:05:55;;;;;;;17.02;16.23;;;;;;;;;;5035204;28;20408;-56
2024/01/13 00:08:21;;;;;;;18.27;17.38;;;;;;;;;;5037131;28;20389;-56
2024/01/13 00:10:46;;;;;;;21.40;20.30;;;;;;;;;;5034349;28;20032;-57
2024/01/13 00:13:11;;;;;;;21.35;20.25;;;;;;;;;;5034785;28;20025;-54
2024/01/13 00:15:37;;;;;;;21.70;20.60;;;;;;;;;;5023361;28;20092;-56
2024/01/13 00:18:02;;;;;;;20.75;19.75;;;;;;;;;;5038856;28;20061;-58
2024/01/13 00:20:28;;;;;;;21.60;20.52;;;;;;;;;;5044259;28;20033;-55
2024/01/13 00:22:53;;;;;;;24.35;23.05;;;;;;;;;;5030974;28;20120;-52
2024/01/13 00:25:18;;;;;;;22.17;21.08;;;;;;;;;;5033604;28;20477;-56
2024/01/13 00:27:44;;;;;;;20.60;19.52;;;;;;;;;;5039304;28;20496;-54
2024/01/13 00:30:09;;;;;;;19.92;18.98;;;;;;;;;;5033647;28;20525;-52
2024/01/13 00:32:35;;;;;;;19.38;18.38;;;;;;;;;;5045934;28;20610;-53
2024/01/13 00:35:00;;;;;;;18.45;17.55;;;;;;;;;;5039209;28;20032;-53
2024/01/13 00:37:25;;;;;;;18.10;17.20;;;;;;;;;;5038701;28;20619;-55
2024/01/13 00:39:51;;;;;;;17.65;16.77;;;;;;;;;;5028714;28;20029;-59
2024/01/13 00:42:16;;;;;;;17.90;17.00;;;;;;;;;;5037255;28;20048;-57
2024/01/13 00:44:41;;;;;;;17.70;16.85;;;;;;;;;;5036196;28;20111;-56
2024/01/13 00:47:07;;;;;;;19.17;18.17;;;;;;;;;;5035010;28;20132;-55
2024/01/13 00:49:32;;;;;;;18.70;17.73;;;;;;;;;;5043690;28;20025;-57
2024/01/13 00:51:57;;;;;;;18.55;17.65;;;;;;;;;;5039909;28;20024;-56
2024/01/13 00:54:23;;;;;;;18.52;17.63;;;;;;;;;;5035008;28;20021;-56
2024/01/13 00:56:48;;;;;;;16.75;15.95;;;;;;;;;;5036780;28;20025;-54
2024/01/13 00:59:13;;;;;;;16.73;15.93;;;;;;;;;;5034636;28;20028;-52
2024/01/13 01:01:39;;;;;;;16.33;15.52;;;;;;;;;;5040650;28;20434;-57
2024/01/13 01:04:04;;;;;;;16.65;15.85;;;;;;;;;;5032583;28;20032;-54
2024/01/13 01:06:29;;;;;;;16.15;15.35;;;;;;;;;;5030946;28;20022;-55
2024/01/13 01:08:55;;;;;;;15.77;15.00;;;;;;;;;;5031053;28;20029;-56
2024/01/13 01:11:20;;;;;;;17.40;16.50;;;;;;;;;;5031799;28;20044;-57
2024/01/13 01:13:45;;;;;;;16.90;16.05;;;;;;;;;;5027891;28;20029;-56
2024/01/13 01:16:11;;;;;;;17.42;16.63;;;;;;;;;;5033369;28;20102;-54
2024/01/13 01:18:37;;;;;;;16.73;15.82;;;;;;;;;;5032365;28;20497;-56
2024/01/13 01:21:02;;;;;;;15.25;14.55;;;;;;;;;;5034711;28;20029;-56
2024/01/13 01:23:27;;;;;;;15.77;15.00;;;;;;;;;;5035342;28;20461;-57
2024/01/13 01:25:53;;;;;;;18.70;17.70;;;;;;;;;;5030715;28;20112;-56
2024/01/13 01:28:18;;;;;;;16.20;15.40;;;;;;;;;;5032716;28;20053;-51
2024/01/13 01:30:44;;;;;;;15.73;15.02;;;;;;;;;;5042554;28;20041;-53
2024/01/13 01:33:09;;;;;;;14.95;14.25;;;;;;;;;;5034322;28;20370;-56
2024/01/13 01:35:34;;;;;;;16.45;15.65;;;;;;;;;;5037273;28;20021;-58
2024/01/13 01:38:00;;;;;;;16.95;16.05;;;;;;;;;;5036321;28;20508;-58
2024/01/13 01:40:26;;;;;;;16.35;15.55;;;;;;;;;;5022410;28;20137;-56
2024/01/13 01:42:52;;;;;;;17.40;16.50;;;;;;;;;;5026517;28;20033;-56
2024/01/13 01:45:17;;;;;;;16.42;15.63;;;;;;;;;;5028914;28;20075;-61
2024/01/13 01:47:43;;;;;;;16.90;16.10;;;;;;;;;;5031966;28;20397;-55
2024/01/13 01:50:10;;;;;;;16.13;15.38;;;;;;;;;;5032377;28;20049;-54
2024/01/13 01:52:36;;;;;;;17.38;16.52;;;;;;;;;;5032475;28;20028;-54
2024/01/13 01:55:01;;;;;;;16.70;15.90;;;;;;;;;;5032164;28;20029;-55
2024/01/13 01:57:27;;;;;;;16.88;15.98;;;;;;;;;;5036318;28;20090;-53
2024/01/13 01:59:53;;;;;;;15.45;14.73;;;;;;;;;;5032204;28;20025;-54
2024/01/13 02:02:19;;;;;;;14.43;13.73;;;;;;;;;;5031867;28;20476;-55
2024/01/13 02:04:46;;;;;;;15.70;14.90;;;;;;;;;;5040559;28;20035;-57
2024/01/13 02:07:11;;;;;;;14.27;13.57;;;;;;;;;;5030005;28;20556;-55
2024/01/13 02:09:36;;;;;;;14.25;13.55;;;;;;;;;;5027451;28;20021;-56
2024/01/13 02:12:02;;;;;;;14.88;14.15;;;;;;;;;;5042734;28;20021;-55
2024/01/13 02:14:27;;;;;;;15.40;14.63;;;;;;;;;;5031165;28;20028;-56
2024/01/13 02:16:53;;;;;;;15.98;15.18;;;;;;;;;;5020229;28;20053;-55
2024/01/13 02:19:18;;;;;;;16.95;16.05;;;;;;;;;;5032333;28;20030;-56
2024/01/13 02:21:43;;;;;;;16.30;15.50;;;;;;;;;;5031521;28;20056;-56
2024/01/13 02:24:09;;;;;;;16.30;15.50;;;;;;;;;;5031437;28;20045;-56
2024/01/13 02:26:34;;;;;;;17.60;16.75;;;;;;;;;;5031482;28;20079;-55
2024/01/13 02:29:00;;;;;;;17.45;16.55;;;;;;;;;;5031257;28;20079;-56
2024/01/13 02:31:25;;;;;;;17.92;17.02;;;;;;;;;;5031209;28;20401;-56
2024/01/13 02:33:51;;;;;;;17.13;16.30;;;;;;;;;;5032493;28;20093;-56
2024/01/13 02:36:16;;;;;;;17.65;16.75;;;;;;;;;;5027943;28;20049;-56
2024/01/13 02:38:42;;;;;;;17.77;16.88;;;;;;;;;;5030444;28;20055;-56
2024/01/13 02:41:07;;;;;;;18.30;17.38;;;;;;;;;;5040587;28;20491;-57
2024/01/13 02:43:32;;;;;;;20.38;19.27;;;;;;;;;;5032306;28;20619;-57
2024/01/13 02:45:58;;;;;;;20.67;19.67;;;;;;;;;;5039775;28;20029;-57
2024/01/13 02:48:25;;;;;;;21.40;20.30;;;;;;;;;;5030905;28;20374;-57
2024/01/13 02:50:53;;;;;;;22.58;21.48;;;;;;;;;;5031115;28;20044;-53
2024/01/13 02:53:19;;;;;;;22.55;21.40;;;;;;;;;;5034302;28;20366;-56
2024/01/13 02:55:45;;;;;;;22.10;20.90;;;;;;;;;;5030622;28;20048;-56
2024/01/13 02:58:10;;;;;;;21.13;20.02;;;;;;;;;;5032572;28;20386;-55
2024/01/13 03:00:35;;;;;;;20.98;19.90;;;;;;;;;;5031367;28;20033;-56
2024/01/13 03:03:01;;;;;;;21.48;20.38;;;;;;;;;;5030931;28;20049;-55
2024/01/13 03:05:26;;;;;;;19.58;18.67;;;;;;;;;;5031235;28;20100;-57
2024/01/13 03:07:51;;;;;;;17.90;17.00;;;;;;;;;;5033232;28;20105;-56
2024/01/13 03:10:17;;;;;;;18.83;17.85;;;;;;;;;;5042240;28;20104;-55
2024/01/13 03:12:42;;;;;;;17.17;16.30;;;;;;;;;;5034199;28;20074;-56
2024/01/13 03:15:10;;;;;;;15.63;14.93;;;;;;;;;;5031841;28;20021;-58
2024/01/13 03:17:36;;;;;;;16.65;15.85;;;;;;;;;;5034077;28;20087;-56
2024/01/13 03:20:01;;;;;;;18.10;17.20;;;;;;;;;;5035464;28;20026;-58
2024/01/13 03:22:26;;;;;;;18.25;17.35;;;;;;;;;;5034454;28;20396;-55
2024/01/13 03:24:52;;;;;;;17.42;16.63;;;;;;;;;;5044290;28;20030;-52
2024/01/13 03:27:17;;;;;;;17.33;16.42;;;;;;;;;;5044525;28;20033;-55
2024/01/13 03:29:42;;;;;;;18.05;17.15;;;;;;;;;;5040319;28;20037;-50
2024/01/13 03:32:08;;;;;;;17.30;16.40;;;;;;;;;;5036067;28;20036;-54
2024/01/13 03:34:33;;;;;;;17.02;16.13;;;;;;;;;;5032759;28;20014;-55
2024/01/13 03:36:59;;;;;;;16.85;16.05;;;;;;;;;;5032932;28;20022;-55
2024/01/13 03:39:24;;;;;;;16.15;15.35;;;;;;;;;;5039348;28;20022;-56
2024/01/13 03:41:49;;;;;;;16.60;15.80;;;;;;;;;;5049751;28;20021;-57
2024/01/13 03:44:15;;;;;;;17.08;16.27;;;;;;;;;;5039408;28;20087;-57
2024/01/13 03:46:40;;;;;;;17.52;16.63;;;;;;;;;;5043119;28;20104;-57
2024/01/13 03:49:05;;;;;;;18.88;17.92;;;;;;;;;;5037427;28;20465;-58
2024/01/13 03:51:31;;;;;;;17.23;16.42;;;;;;;;;;5036322;28;20076;-55
2024/01/13 03:53:56;;;;;;;18.95;18.05;;;;;;;;;;5035482;28;20022;-55
2024/01/13 03:56:21;;;;;;;17.75;16.85;;;;;;;;;;5035143;28;20030;-55
2024/01/13 03:58:47;;;;;;;15.93;15.13;;;;;;;;;;5043238;28;20385;-58
2024/01/13 04:01:12;;;;;;;16.00;15.20;;;;;;;;;;5033668;28;20028;-56
2024/01/13 04:03:37;;;;;;;15.38;14.57;;;;;;;;;;5037135;28;20035;-54
2024/01/13 04:06:03;;;;;;;16.98;16.05;;;;;;;;;;5039230;28;20029;-54
2024/01/13 04:08:28;;;;;;;14.95;14.15;;;;;;;;;;5040956;28;20448;-54
2024/01/13 04:10:54;;;;;;;14.75;13.95;;;;;;;;;;5043600;28;20034;-51
2024/01/13 04:13:19;;;;;;;16.33;15.43;;;;;;;;;;5035489;28;20028;-56
2024/01/13 04:15:44;;;;;;;15.30;14.50;;;;;;;;;;5034676;28;20040;-56
2024/01/13 04:18:10;;;;;;;14.95;14.15;;;;;;;;;;5045763;28;20473;-56
2024/01/13 04:20:35;;;;;;;15.50;14.70;;;;;;;;;;5022577;28;20034;-55
2024/01/13 04:23:00;;;;;;;15.88;15.02;;;;;;;;;;5038632;28;20129;-54
2024/01/13 04:25:26;;;;;;;15.20;14.40;;;;;;;;;;5031953;28;20057;-54
2024/01/13 04:27:53;;;;;;;14.55;13.75;;;;;;;;;;5035689;28;20036;-55
2024/01/13 04:30:18;;;;;;;15.15;14.25;;;;;;;;;;5032104;28;20017;-55
2024/01/13 04:32:44;;;;;;;14.68;13.88;;;;;;;;;;5029561;28;20397;-56
2024/01/13 04:35:10;;;;;;;14.20;13.45;;;;;;;;;;5041652;28;20108;-56
2024/01/13 04:37:35;;;;;;;14.75;13.95;;;;;;;;;;5035734;28;20025;-57
2024/01/13 04:40:01;;;;;;;14.45;13.65;;;;;;;;;;5041630;28;20100;-56
2024/01/13 04:42:26;;;;;;;13.15;12.45;;;;;;;;;;5033654;28;20032;-55
2024/01/13 04:44:52;;;;;;;13.95;13.25;;;;;;;;;;5039267;28;20068;-56
2024/01/13 04:47:17;;;;;;;14.35;13.65;;;;;;;;;;5032507;28;20384;-57
2024/01/13 04:49:42;;;;;;;14.70;13.90;;;;;;;;;;5024521;28;20090;-55
2024/01/13 04:52:08;;;;;;;13.18;12.48;;;;;;;;;;5034220;28;20022;-53
2024/01/13 04:54:33;;;;;;;13.95;13.23;;;;;;;;;;5028476;28;20440;-55
2024/01/13 04:57:00;;;;;;;13.30;12.63;;;;;;;;;;5032411;28;20026;-55
2024/01/13 04:59:25;;;;;;;13.98;13.18;;;;;;;;;;5032617;28;20040;-55
2024/01/13 05:01:51;;;;;;;13.65;12.95;;;;;;;;;;5028963;28;20034;-55
2024/01/13 05:04:16;;;;;;;13.40;12.70;;;;;;;;;;5038148;28;20488;-54
2024/01/13 05:06:41;;;;;;;12.57;11.98;;;;;;;;;;5026106;28;20041;-54
2024/01/13 05:09:07;;;;;;;12.75;12.15;;;;;;;;;;5032108;28;20025;-54
2024/01/13 05:11:32;;;;;;;13.30;12.60;;;;;;;;;;5038693;28;20377;-55
2024/01/13 05:13:57;;;;;;;13.35;12.65;;;;;;;;;;5036747;28;20021;-55
2024/01/13 05:16:22;;;;;;;13.07;12.38;;;;;;;;;;5031223;28;20078;-56
2024/01/13 05:18:48;;;;;;;13.35;12.65;;;;;;;;;;5032442;28;20100;-55
2024/01/13 05:21:13;;;;;;;11.95;11.35;;;;;;;;;;5035570;28;20159;-57
2024/01/13 05:23:38;;;;;;;12.35;11.75;;;;;;;;;;5032740;28;20018;-58
2024/01/13 05:26:04;;;;;;;12.32;11.73;;;;;;;;;;5035806;28;20053;-59
2024/01/13 05:28:29;;;;;;;12.48;11.77;;;;;;;;;;5033065;28;20100;-58
2024/01/13 05:30:54;;;;;;;11.55;11.00;;;;;;;;;;5031223;28;20112;-58
2024/01/13 05:33:20;;;;;;;11.82;11.23;;;;;;;;;;5035142;28;20155;-54
2024/01/13 05:35:45;;;;;;;12.05;11.45;;;;;;;;;;5032799;28;20452;-56
2024/01/13 05:38:11;;;;;;;12.30;11.70;;;;;;;;;;5026361;28;20543;-55
2024/01/13 05:40:40;;;;;;;13.57;12.77;;;;;;;;;;5031626;28;20013;-56
2024/01/13 05:43:06;;;;;;;12.82;12.13;;;;;;;;;;5031056;28;20036;-54
2024/01/13 05:45:31;;;;;;;11.93;11.32;;;;;;;;;;5038685;28;20021;-54
2024/01/13 05:47:56;;;;;;;12.25;11.65;;;;;;;;;;5033890;28;20021;-54
2024/01/13 05:50:22;;;;;;;12.50;11.88;;;;;;;;;;5030190;28;20024;-53
2024/01/13 05:52:47;;;;;;;12.45;11.75;;;;;;;;;;5031523;28;20053;-54
2024/01/13 05:55:13;;;;;;;12.32;11.63;;;;;;;;;;5034844;28;20025;-54
2024/01/13 05:57:38;;;;;;;11.50;10.90;;;;;;;;;;5031758;28;20026;-53
2024/01/13 06:00:04;;;;;;;11.98;11.38;;;;;;;;;;5030561;28;20053;-56
2024/01/13 06:02:29;;;;;;;11.18;10.68;;;;;;;;;;5025566;28;20029;-57
2024/01/13 06:04:54;;;;;;;11.38;10.77;;;;;;;;;;5029589;28;20040;-54
2024/01/13 06:07:20;;;;;;;11.70;11.10;;;;;;;;;;5031837;28;20481;-56
2024/01/13 06:09:45;;;;;;;10.95;10.45;;;;;;;;;;5032211;28;20063;-56
2024/01/13 06:12:12;;;;;;;11.05;10.55;;;;;;;;;;5037150;28;20014;-56
2024/01/13 06:14:37;;;;;;;11.50;10.90;;;;;;;;;;5031474;28;20388;-57
2024/01/13 06:17:03;;;;;;;10.73;10.23;;;;;;;;;;5031421;28;20049;-57
2024/01/13 06:19:28;;;;;;;10.82;10.32;;;;;;;;;;5027720;28;20082;-58
2024/01/13 06:21:54;;;;;;;10.88;10.32;;;;;;;;;;5032246;28;20037;-55
2024/01/13 06:24:19;;;;;;;10.50;10.00;;;;;;;;;;5037734;28;20025;-56
2024/01/13 06:26:45;;;;;;;11.23;10.73;;;;;;;;;;5031870;28;20509;-57
2024/01/13 06:29:10;;;;;;;10.93;10.35;;;;;;;;;;5031829;28;20389;-57
2024/01/13 06:31:36;;;;;;;11.45;10.85;;;;;;;;;;5025657;28;20546;-56
2024/01/13 06:34:01;;;;;;;10.88;10.38;;;;;;;;;;5031320;28;20061;-56
2024/01/13 06:36:27;;;;;;;10.25;9.75;;;;;;;;;;5023193;28;20457;-55
2024/01/13 06:38:53;;;;;;;11.07;10.48;;;;;;;;;;5031698;28;20029;-58
2024/01/13 06:41:18;;;;;;;10.13;9.63;;;;;;;;;;5044046;28;20411;-57
2024/01/13 06:43:44;;;;;;;10.73;10.20;;;;;;;;;;5037383;28;20690;-54
2024/01/13 06:46:09;;;;;;;11.60;11.00;;;;;;;;;;5036644;28;20022;-54
2024/01/13 06:48:34;;;;;;;10.77;10.27;;;;;;;;;;5032842;28;20029;-56
2024/01/13 06:51:01;;;;;;;10.30;9.80;;;;;;;;;;5035796;28;20021;-53
2024/01/13 06:53:26;;;;;;;10.80;10.30;;;;;;;;;;5036437;28;20034;-54
2024/01/13 06:55:51;;;;;;;10.73;10.23;;;;;;;;;;5041826;28;20566;-55
2024/01/13 06:58:17;;;;;;;11.15;10.55;;;;;;;;;;5038570;28;20052;-59
2024/01/13 07:00:42;;;;;;;10.85;10.25;;;;;;;;;;5034590;28;20033;-55
2024/01/13 07:03:07;;;;;;;10.00;9.50;;;;;;;;;;5034790;28;20090;-55
2024/01/13 07:05:33;;;;;;;11.57;10.90;;;;;;;;;;5034661;28;20021;-57
2024/01/13 07:08:00;;;;;;;12.48;11.75;;;;;;;;;;5034046;28;20025;-57
2024/01/13 07:10:26;;;;;;;11.43;10.82;;;;;;;;;;5035891;28;20035;-58
2024/01/13 07:12:51;;;;;;;10.35;9.85;;;;;;;;;;5037008;28;20018;-56
2024/01/13 07:15:16;;;;;;;10.38;9.88;;;;;;;;;;5034659;28;20013;-53
2024/01/13 07:17:42;;;;;;;10.38;9.88;;;;;;;;;;5037469;28;20452;-56
2024/01/13 07:20:07;;;;;;;11.05;10.48;;;;;;;;;;5042337;28;20061;-58
2024/01/13 07:22:34;;;;;;;11.05;10.45;;;;;;;;;;5048289;28;20049;-57
2024/01/13 07:24:59;;;;;;;11.05;10.45;;;;;;;;;;5046534;28;20026;-54
2024/01/13 07:27:25;;;;;;;10.05;9.55;;;;;;;;;;5038848;28;20037;-56
2024/01/13 07:29:50;;;;;;;10.50;10.00;;;;;;;;;;5030493;28;20025;-54
2024/01/13 07:32:16;;;;;;;10.20;9.70;;;;;;;;;;5039276;28;20407;-58
2024/01/13 07:34:42;;;;;;;10.85;10.25;;;;;;;;;;5036701;28;20452;-57
2024/01/13 07:37:07;;;;;;;10.75;10.20;;;;;;;;;;5039726;28;20021;-56
2024/01/13 07:39:32;;;;;;;10.82;10.23;;;;;;;;;;5039712;28;20026;-56
2024/01/13 07:41:57;;;;;;;11.13;10.52;;;;;;;;;;5038465;28;20021;-55
2024/01/13 07:44:23;;;;;;;10.40;9.90;;;;;;;;;;5033510;28;20053;-56
2024/01/13 07:46:48;;;;;;;11.00;10.40;;;;;;;;;;5033430;28;20037;-59
2024/01/13 07:49:14;;;;;;;10.68;10.18;;;;;;;;;;5033978;28;20059;-53
2024/01/13 07:51:39;;;;;;;11.52;10.93;;;;;;;;;;5045183;28;20414;-55
2024/01/13 07:54:04;;;;;;;10.73;10.23;;;;;;;;;;5040718;28;20027;-57
2024/01/13 07:56:30;;;;;;;11.20;10.60;;;;;;;;;;5042151;28;20103;-55
2024/01/13 07:58:55;;;;;;;11.38;10.77;;;;;;;;;;5033133;28;20079;-56
2024/01/13 08:01:21;;;;;;;10.63;10.13;;;;;;;;;;5025185;28;20418;-57
2024/01/13 08:03:46;;;;;;;9.95;9.48;;;;;;;;;;5041129;28;20029;-56
2024/01/13 08:06:11;;;;;;;9.90;9.40;;;;;;;;;;5035712;28;20048;-54
2024/01/13 08:08:37;;;;;;;10.00;9.50;;;;;;;;;;5044532;28;20021;-57
2024/01/13 08:11:02;;;;;;;10.40;9.90;;;;;;;;;;5035598;28;20017;-56
2024/01/13 08:13:27;;;;;;;10.80;10.20;;;;;;;;;;5033877;28;20018;-55
2024/01/13 08:15:53;;;;;;;11.18;10.57;;;;;;;;;;5034060;28;20416;-59
2024/01/13 08:18:18;;;;;;;11.13;10.52;;;;;;;;;;5032108;28;20045;-56
2024/01/13 08:20:43;;;;;;;10.48;9.98;;;;;;;;;;5040007;28;20119;-56
2024/01/13 08:23:09;;;;;;;10.00;9.50;;;;;;;;;;5029785;28;20035;-56
2024/01/13 08:25:34;;;;;;;10.60;10.10;;;;;;;;;;5033289;28;20096;-56
2024/01/13 08:27:59;;;;;;;10.45;9.95;;;;;;;;;;5029826;28;20496;-59
2024/01/13 08:30:24;;;;;;;11.15;10.55;;;;;;;;;;5031649;28;20032;-56
2024/01/13 08:32:50;;;;;;;10.02;9.52;;;;;;;;;;5033089;28;20036;-57
2024/01/13 08:35:15;;;;;;;10.20;9.70;;;;;;;;;;5038951;28;20025;-56
2024/01/13 08:37:40;;;;;;;10.40;9.90;;;;;;;;;;5049785;28;20028;-56
2024/01/13 08:40:07;;;;;;;10.57;10.07;;;;;;;;;;5037841;28;20021;-57
2024/01/13 08:42:32;;;;;;;10.35;9.85;;;;;;;;;;5029224;28;20022;-59
2024/01/13 08:44:57;;;;;;;10.52;10.02;;;;;;;;;;5033511;28;20045;-55
2024/01/13 08:47:23;;;;;;;10.80;10.30;;;;;;;;;;5027973;28;20044;-56
2024/01/13 08:49:48;;;;;;;11.48;10.88;;;;;;;;;;5032168;28;20029;-56
2024/01/13 08:52:13;;;;;;;10.68;10.18;;;;;;;;;;5032004;28;20028;-55
2024/01/13 08:54:39;;;;;;;11.00;10.40;;;;;;;;;;5033025;28;20018;-54
2024/01/13 08:57:04;;;;;;;9.55;9.15;;;;;;;;;;5044860;28;20057;-55
2024/01/13 08:59:30;;;;;;;11.27;10.68;;;;;;;;;;5032641;28;20024;-55
2024/01/13 09:01:56;;;;;;;10.20;9.70;;;;;;;;;;5043267;28;20029;-55
2024/01/13 09:04:21;;;;;;;11.95;11.25;;;;;;;;;;5032143;28;20040;-57
2024/01/13 09:06:46;;;;;;;10.73;10.20;;;;;;;;;;5042180;28;20022;-55
2024/01/13 09:09:12;;;;;;;11.35;10.75;;;;;;;;;;5032422;28;20029;-56
2024/01/13 09:11:38;;;;;;;10.68;10.18;;;;;;;;;;5032391;28;20104;-57
2024/01/13 09:14:03;;;;;;;9.75;9.35;;;;;;;;;;5034830;28;20040;-56
2024/01/13 09:16:28;;;;;;;10.73;10.20;;;;;;;;;;5032155;28;20048;-57
2024/01/13 09:18:54;;;;;;;10.65;10.15;;;;;;;;;;5032861;28;20122;-58
2024/01/13 09:21:19;;;;;;;10.00;9.50;;;;;;;;;;5036615;28;20036;-54
2024/01/13 09:23:45;;;;;;;10.98;10.38;;;;;;;;;;5031976;28;20033;-56
2024/01/13 09:26:10;;;;;;;11.48;10.88;;;;;;;;;;5031812;28;20029;-55
2024/01/13 09:28:35;;;;;;;11.20;10.60;;;;;;;;;;5031244;28;20025;-57
2024/01/13 09:31:01;;;;;;;11.18;10.57;;;;;;;;;;5031986;28;20051;-56
2024/01/13 09:33:26;;;;;;;11.23;10.63;;;;;;;;;;5032646;28;20022;-54
2024/01/13 09:35:51;;;;;;;11.50;10.90;;;;;;;;;;5031547;28;20068;-57
2024/01/13 09:38:17;;;;;;;10.20;9.70;;;;;;;;;;5035725;28;20017;-55
2024/01/13 09:40:42;;;;;;;11.70;11.10;;;;;;;;;;5031900;28;20032;-56
2024/01/13 09:43:13;;;;;;;10.50;10.00;;;;;;;;;;5033690;28;20108;-57
2024/01/13 09:45:40;;;;;;;11.13;10.57;;;;;;;;;;5041430;28;20025;-59
2024/01/13 09:48:08;;;;;;;11.77;11.18;;;;;;;;;;5035517;28;20029;-58
2024/01/13 09:50:34;;;;;;;11.13;10.52;;;;;;;;;;5029074;28;20021;-56
2024/01/13 09:53:03;;;;;;;11.00;10.40;;;;;;;;;;5031755;28;20026;-56
2024/01/13 09:55:29;;;;;;;11.52;10.93;;;;;;;;;;5031858;28;20052;-55
2024/01/13 09:57:54;;;;;;;10.75;10.25;;;;;;;;;;5031636;28;20059;-56
2024/01/13 10:00:20;;;;;;;10.30;9.80;;;;;;;;;;5031990;28;20025;-56
2024/01/13 10:02:45;;;;;;;10.82;10.32;;;;;;;;;;5032449;28;20438;-54
2024/01/13 10:05:10;;;;;;;11.55;10.95;;;;;;;;;;5033940;28;20107;-55
2024/01/13 10:07:38;;;;;;;11.88;11.23;;;;;;;;;;5042576;28;20031;-55
2024/01/13 10:10:06;;;;;;;10.20;9.70;;;;;;;;;;5038721;28;20048;-57
2024/01/13 10:12:31;;;;;;;10.63;10.13;;;;;;;;;;5046562;28;20026;-58
2024/01/13 10:14:56;;;;;;;10.73;10.23;;;;;;;;;;5037743;28;20010;-56
2024/01/13 10:17:22;;;;;;;11.15;10.55;;;;;;;;;;5030590;28;20069;-55
2024/01/13 10:19:49;;;;;;;10.75;10.25;;;;;;;;;;5038812;28;20044;-55
2024/01/13 10:22:15;;;;;;;11.15;10.55;;;;;;;;;;5040989;28;20493;-57
2024/01/13 10:24:40;;;;;;;10.60;10.10;;;;;;;;;;5039991;28;20029;-58
2024/01/13 10:27:09;;;;;;;10.65;10.15;;;;;;;;;;5033860;28;20044;-58
2024/01/13 10:29:35;;;;;;;10.15;9.65;;;;;;;;;;5033491;28;20035;-54
2024/01/13 10:32:01;;;;;;;10.98;10.48;;;;;;;;;;5032361;28;20485;-57
2024/01/13 10:34:27;;;;;;;10.63;10.13;;;;;;;;;;5037255;28;20029;-56
2024/01/13 10:36:52;;;;;;;11.27;10.68;;;;;;;;;;5037580;28;20096;-58
2024/01/13 10:39:17;;;;;;;10.85;10.35;;;;;;;;;;5044676;28;20021;-57
2024/01/13 10:41:46;;;;;;;11.82;11.18;;;;;;;;;;5055220;28;20021;-59
2024/01/13 10:44:12;;;;;;;11.02;10.50;;;;;;;;;;5035480;28;20014;-57
2024/01/13 10:46:38;;;;;;;11.30;10.70;;;;;;;;;;5037789;28;20025;-58
2024/01/13 10:49:13;;;;;;;10.63;10.13;;;;;;;;;;5030961;28;20060;-55
2024/01/13 10:51:42;;;;;;;10.70;10.20;;;;;;;;;;5036809;28;20025;-56
2024/01/13 10:54:08;;;;;;;11.38;10.77;;;;;;;;;;5037936;28;20083;-57
2024/01/13 10:56:35;;;;;;;11.77;11.18;;;;;;;;;;5037509;28;20473;-57
2024/01/13 10:59:01;;;;;;;11.25;10.65;;;;;;;;;;5037263;28;20100;-56
2024/01/13 11:01:27;;;;;;;10.77;10.27;;;;;;;;;;5037276;28;20018;-54
2024/01/13 11:03:56;;;;;;;11.52;10.93;;;;;;;;;;5037702;28;20608;-57
2024/01/13 11:06:22;;;;;;;11.23;10.63;;;;;;;;;;5037010;28;20021;-57
2024/01/13 11:08:47;;;;;;;10.43;9.93;;;;;;;;;;5036529;28;20044;-57
2024/01/13 11:11:25;;;;;;;10.90;10.40;;;;;;;;;;5037274;28;20020;-56
2024/01/13 11:13:54;;;;;;;10.32;9.82;;;;;;;;;;5037418;28;20473;-57
2024/01/13 11:16:21;;;;;;;10.90;10.38;;;;;;;;;;5037172;28;20029;-57
2024/01/13 11:18:50;;;;;;;12.48;11.77;;;;;;;;;;5037049;28;20034;-55
2024/01/13 11:21:22;;;;;;;10.20;9.70;;;;;;;;;;5035975;28;20021;-58
2024/01/13 11:23:53;;;;;;;10.50;10.00;;;;;;;;;;5030265;28;20477;-57
2024/01/13 11:26:19;;;;;;;10.10;9.60;;;;;;;;;;5036841;28;20040;-58
2024/01/13 11:28:52;;;;;;;12.18;11.48;;;;;;;;;;5036084;28;20014;-58
2024/01/13 11:31:29;;;;;;;10.88;10.35;;;;;;;;;;5037327;28;20064;-54
2024/01/13 11:33:55;;;;;;;10.38;9.88;;;;;;;;;;5037461;28;20487;-56
2024/01/13 11:36:21;;;;;;;11.38;10.77;;;;;;;;;;5030670;28;20026;-56
2024/01/13 11:38:46;;;;;;;11.32;10.73;;;;;;;;;;5036911;28;20412;-57
2024/01/13 11:41:12;;;;;;;11.23;10.63;;;;;;;;;;5036086;28;20021;-58
2024/01/13 11:43:39;;;;;;;11.15;10.55;;;;;;;;;;5035109;28;20056;-56
2024/01/13 11:46:09;;;;;;;10.73;10.23;;;;;;;;;;5034141;28;20048;-57
2024/01/13 11:48:39;;;;;;;10.60;10.10;;;;;;;;;;5021304;28;20025;-57
2024/01/13 11:51:13;;;;;;;10.60;10.10;;;;;;;;;;5033688;28;20112;-55
2024/01/13 11:53:45;;;;;;;10.40;9.90;;;;;;;;;;5033729;28;20022;-58
2024/01/13 11:56:11;;;;;;;10.70;10.20;;;;;;;;;;5033654;28;20025;-58
2024/01/13 11:58:37;;;;;;;10.90;10.40;;;;;;;;;;5027588;28;20030;-57
2024/01/13 12:01:07;;;;;;;10.23;9.73;;;;;;;;;;5032003;28;20022;-55
2024/01/13 12:03:32;;;;;;;11.27;10.68;;;;;;;;;;5033507;28;20106;-56
2024/01/13 12:05:58;;;;;;;10.65;10.15;;;;;;;;;;5033211;28;20037;-57
2024/01/13 12:08:26;;;;;;;10.48;9.98;;;;;;;;;;5033415;28;20024;-56
2024/01/13 12:10:53;;;;;;;10.75;10.25;;;;;;;;;;5033746;28;20074;-57
2024/01/13 12:13:19;;;;;;;11.82;11.23;;;;;;;;;;5034838;28;20119;-53
2024/01/13 12:15:48;;;;;;;11.93;11.30;;;;;;;;;;5033725;28;20485;-58
2024/01/13 12:18:18;;;;;;;11.32;10.73;;;;;;;;;;5033016;28;20042;-57
2024/01/13 12:20:43;;;;;;;10.85;10.35;;;;;;;;;;5033391;28;20029;-54
2024/01/13 12:23:09;;;;;;;10.98;10.43;;;;;;;;;;5029530;28;20147;-57
2024/01/13 12:25:34;;;;;;;10.75;10.25;;;;;;;;;;5031917;28;20021;-56
2024/01/13 12:27:59;;;;;;;11.45;10.85;;;;;;;;;;5032699;28;20454;-57
2024/01/13 12:30:25;;;;;;;10.65;10.15;;;;;;;;;;5032741;28;20028;-57
2024/01/13 12:32:50;;;;;;;10.65;10.15;;;;;;;;;;5026368;28;20029;-56
2024/01/13 12:35:16;;;;;;;11.10;10.52;;;;;;;;;;5030536;28;20010;-54
2024/01/13 12:37:43;;;;;;;11.27;10.68;;;;;;;;;;5031654;28;20044;-55
2024/01/13 12:40:10;;;;;;;11.23;10.63;;;;;;;;;;5032602;28;20057;-57
2024/01/13 12:42:39;;;;;;;11.13;10.52;;;;;;;;;;5032729;28;20051;-59
2024/01/13 12:45:04;;;;;;;10.45;9.95;;;;;;;;;;5032934;28;20018;-57
2024/01/13 12:47:29;;;;;;;10.10;9.60;;;;;;;;;;5029641;28;20028;-56
2024/01/13 12:50:05;;;;;;;10.70;10.20;;;;;;;;;;5031965;28;20060;-56
2024/01/13 12:52:30;;;;;;;10.52;10.02;;;;;;;;;;5033198;28;20022;-54
2024/01/13 12:54:56;;;;;;;11.10;10.55;;;;;;;;;;5032723;28;20031;-56
2024/01/13 12:57:21;;;;;;;10.40;9.90;;;;;;;;;;5033121;28;20021;-57
2024/01/13 12:59:46;;;;;;;11.23;10.63;;;;;;;;;;5032484;28;20028;-55
2024/01/13 13:02:12;;;;;;;11.25;10.65;;;;;;;;;;5032650;28;20048;-55
2024/01/13 13:04:37;;;;;;;11.32;10.73;;;;;;;;;;5032234;28;20017;-54
2024/01/13 13:07:03;;;;;;;11.38;10.77;;;;;;;;;;5031496;28;20025;-55
2024/01/13 13:09:28;;;;;;;10.52;10.02;;;;;;;;;;5032610;28;20025;-57
2024/01/13 13:11:56;;;;;;;10.63;10.13;;;;;;;;;;5032385;28;20022;-59
2024/01/13 13:14:21;;;;;;;12.18;11.50;;;;;;;;;;5031032;28;20022;-56
2024/01/13 13:16:47;;;;;;;10.80;10.30;;;;;;;;;;5031811;28;20531;-59
2024/01/13 13:19:13;;;;;;;11.27;10.68;;;;;;;;;;5032478;28;20068;-57
2024/01/13 13:21:39;;;;;;;10.55;10.05;;;;;;;;;;5028443;28;20362;-59
2024/01/13 13:24:04;;;;;;;10.10;9.60;;;;;;;;;;5029901;28;20105;-58
2024/01/13 13:26:29;;;;;;;10.10;9.60;;;;;;;;;;5032413;28;20017;-57
2024/01/13 13:28:55;;;;;;;11.30;10.70;;;;;;;;;;5029681;28;20073;-59
2024/01/13 13:31:21;;;;;;;10.70;10.20;;;;;;;;;;5031541;28;20489;-57
2024/01/13 13:33:47;;;;;;;10.35;9.85;;;;;;;;;;5031881;28;20037;-57
2024/01/13 13:36:13;;;;;;;10.30;9.80;;;;;;;;;;5031498;28;20067;-58
2024/01/13 13:38:40;;;;;;;10.30;9.80;;;;;;;;;;5031817;28;20021;-56
2024/01/13 13:41:06;;;;;;;10.38;9.88;;;;;;;;;;5031209;28;20451;-57
2024/01/13 13:43:32;;;;;;;10.45;9.95;;;;;;;;;;5031673;28;20105;-57
2024/01/13 13:45:58;;;;;;;10.35;9.85;;;;;;;;;;5032417;28;20028;-56
2024/01/13 13:48:24;;;;;;;10.73;10.23;;;;;;;;;;5031655;28;20435;-54
2024/01/13 13:50:50;;;;;;;10.52;10.02;;;;;;;;;;5031294;28;20029;-58
2024/01/13 13:53:16;;;;;;;10.35;9.85;;;;;;;;;;5031652;28;20021;-55
2024/01/13 13:55:41;;;;;;;11.32;10.73;;;;;;;;;;5031474;28;20025;-56
2024/01/13 13:58:07;;;;;;;10.50;10.00;;;;;;;;;;5031031;28;20056;-58
2024/01/13 14:00:32;;;;;;;10.30;9.80;;;;;;;;;;5031482;28;20017;-56
2024/01/13 14:02:57;;;;;;;10.65;10.15;;;;;;;;;;5031388;28;20021;-57
2024/01/13 14:05:23;;;;;;;10.48;9.98;;;;;;;;;;5031561;28;20027;-56
2024/01/13 14:07:51;;;;;;;11.02;10.45;;;;;;;;;;5030619;28;20064;-58
2024/01/13 14:10:17;;;;;;;11.00;10.43;;;;;;;;;;5031755;28;20022;-57